Time;durP1;ratioP1;P1;durP2;ratioP2;P2;SDS_P1;SDS_P2;PMS_P1;PMS_P2;Temp;Humidity;BMP_temperature;BMP_pressure;BME280_temperature;BME280_humidity;BME280_pressure;Samples;Min_cycle;Max_cycle;Signal;HPM_P1;HPM_P2
2020/12/11 00:01:51;;;;;;;39.73;19.73;;;;;;;-0.53;100.00;99765.61;1755770;80;21175;-66
2020/12/11 00:04:20;;;;;;;34.80;19.65;;;;;;;-0.51;100.00;99771.56;1791198;80;21171;-66
2020/12/11 00:06:48;;;;;;;32.95;17.70;;;;;;;-0.50;100.00;99770.20;1786498;80;21206;-67
2020/12/11 00:09:17;;;;;;;30.72;18.12;;;;;;;-0.48;100.00;99768.83;1786503;79;21154;-67
2020/12/11 00:11:45;;;;;;;29.37;16.67;;;;;;;-0.48;100.00;99762.34;1774290;79;21166;-67
2020/12/11 00:14:13;;;;;;;28.10;15.70;;;;;;;-0.42;100.00;99764.62;1760151;80;21297;-67
2020/12/11 00:16:40;;;;;;;35.50;17.05;;;;;;;-0.41;100.00;99754.16;1788079;79;21304;-67
2020/12/11 00:19:08;;;;;;;30.65;14.95;;;;;;;-0.41;100.00;99758.52;1780137;79;21148;-67
2020/12/11 00:21:43;;;;;;;32.95;16.87;;;;;;;-0.44;100.00;99757.36;1779390;79;21158;-67
2020/12/11 00:24:11;;;;;;;28.02;14.68;;;;;;;-0.42;100.00;99760.72;1786506;79;21284;-67
2020/12/11 00:26:39;;;;;;;32.58;17.10;;;;;;;-0.40;100.00;99757.59;1783032;79;21164;-67
2020/12/11 00:29:09;;;;;;;30.05;17.15;;;;;;;-0.39;100.00;99756.69;1788063;80;21290;-67
2020/12/11 00:31:38;;;;;;;30.85;17.15;;;;;;;-0.40;100.00;99764.91;1754811;79;21302;-67
2020/12/11 00:34:06;;;;;;;28.23;15.25;;;;;;;-0.40;100.00;99742.83;1777982;79;21155;-67
2020/12/11 00:36:33;;;;;;;27.17;15.50;;;;;;;-0.40;100.00;99753.69;1794919;79;21230;-67
2020/12/11 00:39:01;;;;;;;27.13;15.60;;;;;;;-0.40;100.00;99751.92;1791992;79;21305;-68
2020/12/11 00:41:28;;;;;;;28.75;16.60;;;;;;;-0.40;100.00;99739.39;1790152;79;21218;-67
2020/12/11 00:43:55;;;;;;;32.08;17.15;;;;;;;-0.42;100.00;99746.43;1794176;79;21164;-68
2020/12/11 00:46:24;;;;;;;26.55;15.25;;;;;;;-0.44;100.00;99741.77;1778037;79;21162;-67
2020/12/11 00:48:53;;;;;;;24.95;14.93;;;;;;;-0.43;100.00;99739.53;1781805;79;21162;-68
2020/12/11 00:51:21;;;;;;;25.92;14.83;;;;;;;-0.42;100.00;99745.96;1776133;79;21154;-67
2020/12/11 00:53:49;;;;;;;23.38;14.28;;;;;;;-0.43;100.00;99749.50;1779546;79;21150;-67
2020/12/11 00:56:17;;;;;;;29.77;15.58;;;;;;;-0.45;100.00;99745.27;1785741;79;21381;-67
2020/12/11 00:58:45;;;;;;;24.55;14.00;;;;;;;-0.44;100.00;99747.80;1781593;79;21179;-67
2020/12/11 01:01:13;;;;;;;23.15;13.65;;;;;;;-0.38;100.00;99746.66;1789901;79;21323;-67
2020/12/11 01:03:42;;;;;;;24.05;14.70;;;;;;;-0.36;100.00;99750.48;1778982;79;21175;-67
2020/12/11 01:06:10;;;;;;;24.60;14.35;;;;;;;-0.37;100.00;99730.16;1786608;79;21175;-67
2020/12/11 01:08:37;;;;;;;27.32;13.78;;;;;;;-0.38;100.00;99741.92;1794937;79;21307;-67
2020/12/11 01:11:06;;;;;;;25.65;13.80;;;;;;;-0.37;100.00;99730.16;1775300;79;21170;-68
2020/12/11 01:13:33;;;;;;;26.55;15.23;;;;;;;-0.33;100.00;99734.74;1777960;79;21167;-68
2020/12/11 01:16:01;;;;;;;25.35;15.05;;;;;;;-0.33;100.00;99732.97;1778069;79;21237;-68
2020/12/11 01:18:28;;;;;;;26.05;16.60;;;;;;;-0.33;100.00;99731.67;1781729;79;21154;-68
2020/12/11 01:20:56;;;;;;;26.50;15.13;;;;;;;-0.35;100.00;99749.11;1773496;79;21206;-67
2020/12/11 01:23:24;;;;;;;22.80;13.80;;;;;;;-0.33;100.00;99746.44;1782726;79;21151;-68
2020/12/11 01:25:52;;;;;;;24.98;13.62;;;;;;;-0.31;100.00;99735.03;1773387;79;21155;-68
2020/12/11 01:28:19;;;;;;;22.75;14.15;;;;;;;-0.31;100.00;99742.83;1781626;79;21725;-68
2020/12/11 01:30:47;;;;;;;22.13;13.93;;;;;;;-0.34;100.00;99723.95;1756919;80;21152;-68
2020/12/11 01:33:15;;;;;;;20.88;13.60;;;;;;;-0.36;100.00;99723.19;1783266;79;21611;-67
2020/12/11 01:35:44;;;;;;;23.07;12.88;;;;;;;-0.35;100.00;99733.52;1786606;79;21585;-67
2020/12/11 01:38:11;;;;;;;24.02;14.20;;;;;;;-0.36;100.00;99723.19;1757933;79;21135;-67
2020/12/11 01:40:39;;;;;;;24.15;14.13;;;;;;;-0.38;100.00;99720.66;1786236;79;21159;-67
2020/12/11 01:43:06;;;;;;;22.13;13.20;;;;;;;-0.39;100.00;99734.59;1749008;80;21151;-67
2020/12/11 01:45:36;;;;;;;22.87;12.98;;;;;;;-0.35;100.00;99726.19;1774801;80;21179;-67
2020/12/11 01:48:03;;;;;;;21.85;12.68;;;;;;;-0.35;100.00;99720.52;1787911;79;21604;-68
2020/12/11 01:50:31;;;;;;;24.18;14.00;;;;;;;-0.34;100.00;99729.15;1764276;80;21167;-68
2020/12/11 01:52:58;;;;;;;25.77;14.20;;;;;;;-0.37;100.00;99720.20;1774594;80;21627;-68
2020/12/11 01:55:26;;;;;;;27.45;15.05;;;;;;;-0.40;100.00;99716.01;1789913;79;21299;-67
2020/12/11 01:58:01;;;;;;;23.22;13.75;;;;;;;-0.41;100.00;99711.28;1782260;79;21190;-67
2020/12/11 02:00:29;;;;;;;22.90;13.98;;;;;;;-0.40;100.00;99708.21;1776352;79;21580;-67
2020/12/11 02:03:05;;;;;;;23.77;14.05;;;;;;;-0.42;100.00;99698.36;1784742;79;21168;-67
2020/12/11 02:05:58;;;;;;;21.87;12.75;;;;;;;-0.39;100.00;99703.41;1806362;78;22392;-68
2020/12/11 02:08:27;;;;;;;19.32;10.90;;;;;;;-0.45;100.00;99704.56;1777458;80;21632;-67
2020/12/11 02:10:55;;;;;;;23.30;13.48;;;;;;;-0.41;100.00;99694.86;1703572;83;21170;-68
2020/12/11 02:13:23;;;;;;;20.97;12.68;;;;;;;-0.41;100.00;99708.68;1744717;81;21167;-68
2020/12/11 02:15:51;;;;;;;22.60;13.58;;;;;;;-0.40;100.00;99718.61;1742868;81;21144;-68
2020/12/11 02:18:19;;;;;;;22.45;12.80;;;;;;;-0.42;100.00;99720.44;1729094;83;21184;-68
2020/12/11 02:20:46;;;;;;;22.60;12.45;;;;;;;-0.42;100.00;99704.39;1699217;82;21615;-68
2020/12/11 02:23:13;;;;;;;19.87;12.33;;;;;;;-0.37;100.00;99705.47;1715500;82;21184;-68
2020/12/11 02:25:42;;;;;;;23.52;12.98;;;;;;;-0.38;100.00;99712.87;1761907;81;21175;-68
2020/12/11 02:28:10;;;;;;;23.73;13.95;;;;;;;-0.37;100.00;99713.70;1724267;82;21635;-67
2020/12/11 02:30:38;;;;;;;23.22;12.90;;;;;;;-0.40;100.00;99711.64;1757127;81;21310;-68
2020/12/11 02:33:05;;;;;;;20.10;12.15;;;;;;;-0.38;100.00;99702.47;1714245;83;21625;-67
2020/12/11 02:35:34;;;;;;;23.20;13.10;;;;;;;-0.38;100.00;99708.97;1756452;81;21342;-68
2020/12/11 02:38:01;;;;;;;22.67;13.50;;;;;;;-0.40;100.00;99713.41;1674637;84;21163;-68
2020/12/11 02:40:29;;;;;;;21.10;12.00;;;;;;;-0.42;100.00;99712.65;1703677;83;21610;-68
2020/12/11 02:42:56;;;;;;;20.70;12.78;;;;;;;-0.42;100.00;99716.55;1682582;84;21210;-68
2020/12/11 02:45:24;;;;;;;20.08;12.25;;;;;;;-0.46;100.00;99744.91;1698757;84;21319;-68
2020/12/11 02:47:52;;;;;;;21.85;13.00;;;;;;;-0.49;100.00;99717.30;1701004;84;21185;-68
2020/12/11 02:50:19;;;;;;;23.22;13.45;;;;;;;-0.51;100.00;99715.71;1683448;84;21213;-68
2020/12/11 02:52:47;;;;;;;21.52;12.73;;;;;;;-0.52;100.00;99719.24;1686410;84;21768;-68
2020/12/11 02:55:14;;;;;;;23.47;12.95;;;;;;;-0.51;100.00;99745.59;1675368;84;21193;-68
2020/12/11 02:57:42;;;;;;;19.02;10.70;;;;;;;-0.50;100.00;99722.60;1665873;84;21312;-68
2020/12/11 03:00:10;;;;;;;21.33;12.15;;;;;;;-0.53;100.00;99730.07;1691846;84;21201;-68
2020/12/11 03:02:38;;;;;;;23.12;13.62;;;;;;;-0.55;100.00;99728.48;1701725;84;21178;-68
2020/12/11 03:05:05;;;;;;;20.40;12.05;;;;;;;-0.57;100.00;99730.31;1703084;84;21154;-68
2020/12/11 03:07:33;;;;;;;21.75;12.50;;;;;;;-0.57;100.00;99729.84;1685927;84;21197;-68
2020/12/11 03:10:01;;;;;;;22.90;13.05;;;;;;;-0.57;100.00;99722.52;1675109;84;21212;-68
2020/12/11 03:12:30;;;;;;;22.30;12.90;;;;;;;-0.57;100.00;99721.22;1682618;84;21189;-68
2020/12/11 03:14:57;;;;;;;23.52;12.10;;;;;;;-0.56;100.00;99722.88;1674930;84;21204;-68
2020/12/11 03:17:25;;;;;;;20.25;10.93;;;;;;;-0.55;100.00;99712.42;1678495;84;21619;-67
2020/12/11 03:19:53;;;;;;;20.82;11.40;;;;;;;-0.52;100.00;99724.44;1699416;84;21197;-68
2020/12/11 03:22:21;;;;;;;25.05;12.05;;;;;;;-0.55;100.00;99718.91;1687732;84;21355;-68
2020/12/11 03:24:48;;;;;;;22.25;11.88;;;;;;;-0.56;100.00;99718.98;1693855;84;21582;-67
2020/12/11 03:27:16;;;;;;;22.60;12.35;;;;;;;-0.59;100.00;99715.62;1692337;84;21328;-68
2020/12/11 03:29:44;;;;;;;20.00;11.90;;;;;;;-0.57;100.00;99708.23;1679925;84;21634;-67
2020/12/11 03:32:12;;;;;;;25.52;13.00;;;;;;;-0.55;100.00;99715.02;1691547;84;21201;-67
2020/12/11 03:34:41;;;;;;;20.72;11.08;;;;;;;-0.55;100.00;99708.99;1678287;84;21189;-67
2020/12/11 03:37:09;;;;;;;23.85;11.70;;;;;;;-0.55;100.00;99707.69;1702120;83;21317;-67
2020/12/11 03:39:37;;;;;;;17.73;11.10;;;;;;;-0.55;100.00;99708.53;1671090;83;21133;-67
2020/12/11 03:42:05;;;;;;;19.60;11.08;;;;;;;-0.54;100.00;99715.85;1702924;83;21180;-67
2020/12/11 03:44:32;;;;;;;19.90;12.10;;;;;;;-0.55;100.00;99715.02;1683487;83;21173;-67
2020/12/11 03:47:00;;;;;;;21.33;12.23;;;;;;;-0.57;100.00;99714.73;1692626;84;21176;-67
2020/12/11 03:49:29;;;;;;;22.37;12.15;;;;;;;-0.59;100.00;99719.52;1640878;84;21186;-67
2020/12/11 03:51:56;;;;;;;22.65;12.10;;;;;;;-0.56;100.00;99713.79;1690179;84;21249;-68
2020/12/11 03:54:24;;;;;;;20.75;11.22;;;;;;;-0.54;100.00;99709.36;1701785;84;21216;-68
2020/12/11 03:56:51;;;;;;;22.10;12.40;;;;;;;-0.54;100.00;99722.34;1668243;84;21170;-68
2020/12/11 03:59:20;;;;;;;22.20;11.90;;;;;;;-0.56;100.00;99729.38;1690377;84;21186;-67
2020/12/11 04:01:48;;;;;;;19.90;11.30;;;;;;;-0.58;100.00;99728.16;1692538;84;21739;-67
2020/12/11 04:04:17;;;;;;;19.67;10.58;;;;;;;-0.60;100.00;99723.49;1645736;84;21189;-67
2020/12/11 04:06:45;;;;;;;19.57;12.03;;;;;;;-0.60;100.00;99729.98;1702658;84;21197;-67
2020/12/11 04:09:13;;;;;;;22.30;12.45;;;;;;;-0.63;100.00;99730.98;1675106;84;21252;-69
2020/12/11 04:11:41;;;;;;;18.73;11.28;;;;;;;-0.66;100.00;99717.31;1698816;84;21611;-69
2020/12/11 04:14:08;;;;;;;21.65;11.03;;;;;;;-0.69;100.00;99727.41;1692313;84;21201;-68
2020/12/11 04:16:36;;;;;;;18.85;10.50;;;;;;;-0.66;100.00;99722.04;1701736;84;21184;-68
2020/12/11 04:19:04;;;;;;;20.85;12.50;;;;;;;-0.65;100.00;99729.40;1683698;84;21197;-68
2020/12/11 04:21:32;;;;;;;21.25;12.13;;;;;;;-0.68;100.00;99719.15;1694546;84;21335;-68
2020/12/11 04:24:00;;;;;;;22.10;11.20;;;;;;;-0.70;100.00;99727.48;1700898;84;21197;-68
2020/12/11 04:26:27;;;;;;;21.23;11.63;;;;;;;-0.70;100.00;99729.61;1691776;84;21646;-68
2020/12/11 04:28:55;;;;;;;21.15;10.95;;;;;;;-0.69;100.00;99728.70;1685913;84;21332;-68
2020/12/11 04:31:22;;;;;;;21.25;11.33;;;;;;;-0.71;100.00;99724.48;1699053;84;21193;-68
2020/12/11 04:33:50;;;;;;;20.95;11.22;;;;;;;-0.75;100.00;99730.28;1700786;84;21232;-68
2020/12/11 04:36:18;;;;;;;20.52;10.60;;;;;;;-0.80;100.00;99727.09;1700117;83;21288;-68
2020/12/11 04:38:47;;;;;;;20.10;10.85;;;;;;;-0.82;100.00;99727.16;1700811;84;21186;-68
2020/12/11 04:41:15;;;;;;;18.87;11.18;;;;;;;-0.81;100.00;99733.19;1696236;84;21197;-68
2020/12/11 04:43:43;;;;;;;20.30;11.12;;;;;;;-0.83;100.00;99728.53;1702043;84;21205;-68
2020/12/11 04:46:11;;;;;;;20.97;11.08;;;;;;;-0.86;100.00;99727.37;1691699;84;21174;-68
2020/12/11 04:48:39;;;;;;;20.48;10.78;;;;;;;-0.86;100.00;99733.86;1693096;84;21879;-68
2020/12/11 04:51:09;;;;;;;21.05;10.60;;;;;;;-0.85;100.00;99726.47;1682182;84;21336;-68
2020/12/11 04:53:37;;;;;;;20.68;11.25;;;;;;;-0.86;100.00;99732.56;1702396;84;21190;-68
2020/12/11 04:56:06;;;;;;;19.98;11.65;;;;;;;-0.86;100.00;99741.22;1676015;84;21323;-68
2020/12/11 04:58:34;;;;;;;19.27;10.25;;;;;;;-0.87;100.00;99727.00;1674388;84;21618;-68
2020/12/11 05:01:05;;;;;;;23.60;11.88;;;;;;;-0.89;100.00;99736.63;1692237;84;21368;-68
2020/12/11 05:03:35;;;;;;;19.12;10.90;;;;;;;-0.88;100.00;99739.59;1678299;84;21217;-68
2020/12/11 05:06:03;;;;;;;19.92;10.93;;;;;;;-0.91;100.00;99746.25;1667011;84;21315;-68
2020/12/11 05:08:31;;;;;;;19.67;10.90;;;;;;;-0.95;100.00;99752.05;1682181;84;21352;-68
2020/12/11 05:10:59;;;;;;;16.93;10.35;;;;;;;-0.96;100.00;99757.30;1688529;84;21161;-68
2020/12/11 05:13:27;;;;;;;23.92;11.90;;;;;;;-0.98;100.00;99754.31;1676937;84;21617;-68
2020/12/11 05:16:11;;;;;;;18.87;11.40;;;;;;;-0.98;100.00;99754.77;1680789;84;21184;-68
2020/12/11 05:18:39;;;;;;;;;;;;;;;-0.97;100.00;99757.77;1691401;84;21162;-68
2020/12/11 05:21:20;;;;;;;20.23;10.63;;;;;;;-1.01;100.00;99750.58;1662732;84;20237;-68
2020/12/11 05:23:57;;;;;;;18.00;10.43;;;;;;;-1.03;100.00;99768.42;1717255;83;21167;-68
2020/12/11 05:26:31;;;;;;;23.67;12.03;;;;;;;-1.07;100.00;99763.83;1720788;83;21229;-68
2020/12/11 05:29:02;;;;;;;18.40;10.45;;;;;;;-1.11;100.00;99759.70;1720917;83;21590;-68
2020/12/11 05:31:29;;;;;;;20.52;10.75;;;;;;;-1.13;100.00;99764.13;1731685;83;21185;-68
2020/12/11 05:34:10;;;;;;;18.87;11.03;;;;;;;-1.11;100.00;99767.95;1726529;83;21182;-68
2020/12/11 05:36:52;;;;;;;22.65;13.13;;;;;;;-1.14;100.00;99772.84;1731547;83;21637;-68
2020/12/11 05:39:34;;;;;;;21.80;11.85;;;;;;;-1.19;100.00;99778.23;1720206;83;21678;-68
2020/12/11 05:42:05;;;;;;;23.07;12.28;;;;;;;-1.22;100.00;99772.34;1723514;83;21737;-68
2020/12/11 05:44:33;;;;;;;20.85;12.55;;;;;;;-1.25;100.00;99768.14;1711838;83;21169;-68
2020/12/11 05:47:17;;;;;;;21.95;12.98;;;;;;;-1.29;100.00;99775.69;1721258;83;21185;-68
2020/12/11 05:49:45;;;;;;;21.30;11.20;;;;;;;-1.32;100.00;99768.03;1730172;83;21149;-68
2020/12/11 05:52:16;;;;;;;21.62;12.58;;;;;;;-1.31;100.00;99777.95;1699863;83;21394;-68
2020/12/11 05:54:54;;;;;;;19.15;11.68;;;;;;;-1.35;100.00;99778.55;1704115;83;21142;-68
2020/12/11 05:57:23;;;;;;;19.80;10.23;;;;;;;-1.42;100.00;99788.37;1724960;83;21205;-68
2020/12/11 05:59:52;;;;;;;19.12;10.90;;;;;;;-1.47;99.93;99773.47;1721878;83;21320;-68
2020/12/11 06:02:20;;;;;;;19.80;11.00;;;;;;;-1.50;99.48;99797.41;1681634;83;21378;-68
2020/12/11 06:04:48;;;;;;;22.07;10.35;;;;;;;-1.59;99.55;99777.47;1683719;83;21141;-68
2020/12/11 06:07:16;;;;;;;18.73;10.40;;;;;;;-1.60;99.63;99785.31;1650100;83;21225;-69
2020/12/11 06:09:44;;;;;;;21.52;9.80;;;;;;;-1.61;100.00;99788.80;1708614;83;21206;-69
2020/12/11 06:12:12;;;;;;;19.95;10.03;;;;;;;-1.63;100.00;99783.70;1730948;83;21593;-69
2020/12/11 06:15:06;;;;;;;18.35;9.60;;;;;;;-1.65;100.00;99781.61;1728168;83;21169;-69
2020/12/11 06:17:41;;;;;;;17.97;10.03;;;;;;;-1.68;99.49;99781.77;1704343;83;21185;-69
2020/12/11 06:20:10;;;;;;;20.85;10.38;;;;;;;-1.71;99.53;99783.19;1708694;83;21324;-69
2020/12/11 06:22:38;;;;;;;19.37;11.10;;;;;;;-1.74;99.43;99782.48;1712506;83;21609;-68
2020/12/11 06:25:30;;;;;;;17.82;10.13;;;;;;;-1.80;98.95;99797.39;1682770;83;21319;-69
2020/12/11 06:27:59;;;;;;;18.25;10.60;;;;;;;-1.84;99.35;99781.58;1691517;83;21185;-68
2020/12/11 06:30:32;;;;;;;20.48;9.50;;;;;;;-1.88;99.35;99778.74;1708516;83;21239;-69
2020/12/11 06:33:00;;;;;;;16.82;9.80;;;;;;;-1.92;98.69;99783.68;1716192;83;21221;-68
2020/12/11 06:35:28;;;;;;;20.85;10.50;;;;;;;-1.93;99.07;99787.63;1723304;83;21177;-70
2020/12/11 06:37:55;;;;;;;18.30;9.98;;;;;;;-1.95;98.99;99790.28;1698120;83;21349;-70
2020/12/11 06:40:49;;;;;;;20.20;10.63;;;;;;;-1.96;99.34;99789.45;1719485;83;21594;-69
2020/12/11 06:43:43;;;;;;;16.50;10.15;;;;;;;-1.97;99.50;99790.34;1721989;83;21328;-69
2020/12/11 06:46:17;;;;;;;19.12;9.93;;;;;;;-1.93;99.42;99791.52;1707918;83;21598;-69
2020/12/11 06:49:10;;;;;;;24.67;11.45;;;;;;;-1.98;98.93;99786.08;1722872;83;21185;-69
2020/12/11 06:51:52;;;;;;;18.77;10.82;;;;;;;-1.99;98.40;99783.55;1656785;83;21609;-70
2020/12/11 06:54:26;;;;;;;18.95;10.43;;;;;;;-2.00;97.87;99792.22;1731807;83;21311;-69
2020/12/11 06:56:59;;;;;;;19.55;9.90;;;;;;;-2.02;97.71;99784.97;1725344;83;21194;-69
2020/12/11 06:59:40;;;;;;;21.55;10.70;;;;;;;-2.02;97.46;99794.04;1706284;83;21181;-69
2020/12/11 07:02:17;;;;;;;17.37;10.00;;;;;;;-2.03;97.27;99784.59;1731833;83;21157;-70
2020/12/11 07:04:48;;;;;;;18.48;10.35;;;;;;;-2.02;97.56;99779.78;1729816;83;21181;-69
2020/12/11 07:07:18;;;;;;;20.23;10.50;;;;;;;-2.03;97.73;99777.66;1727303;83;21566;-70
2020/12/11 07:09:47;;;;;;;20.37;10.40;;;;;;;-2.04;97.22;99772.53;1726731;83;21210;-69
2020/12/11 07:12:15;;;;;;;18.42;9.83;;;;;;;-2.07;96.31;99768.80;1710248;83;21605;-69
2020/12/11 07:14:46;;;;;;;21.25;10.93;;;;;;;-2.11;96.46;99768.52;1674805;83;21775;-69
2020/12/11 07:17:27;;;;;;;17.57;10.23;;;;;;;-2.13;96.68;99765.15;1703528;83;21212;-69
2020/12/11 07:19:56;;;;;;;22.37;12.07;;;;;;;-2.12;96.67;99762.96;1720466;83;21188;-68
2020/12/11 07:22:24;;;;;;;17.32;10.38;;;;;;;-2.12;96.23;99765.09;1698952;83;21150;-67
2020/12/11 07:24:51;;;;;;;21.23;11.73;;;;;;;-2.13;96.44;99757.37;1729744;83;22255;-68
2020/12/11 07:27:19;;;;;;;20.65;10.80;;;;;;;-2.11;96.81;99758.14;1698546;83;21712;-68
2020/12/11 07:29:50;;;;;;;19.80;10.85;;;;;;;-2.12;96.66;99750.84;1685688;83;21638;-68
2020/12/11 07:32:20;;;;;;;18.07;10.15;;;;;;;-2.14;95.73;99763.02;1710283;83;21201;-69
2020/12/11 07:34:48;;;;;;;18.40;10.10;;;;;;;-2.18;95.86;99753.23;1731096;83;21339;-68
2020/12/11 07:37:17;;;;;;;18.25;9.95;;;;;;;-2.22;94.03;99751.69;1686859;83;21320;-68
2020/12/11 07:39:45;;;;;;;20.05;9.98;;;;;;;-2.29;94.58;99754.15;1731454;83;21217;-66
2020/12/11 07:42:14;;;;;;;20.15;11.25;;;;;;;-2.37;94.22;99753.18;1712838;83;21748;-68
2020/12/11 07:44:42;;;;;;;20.25;10.20;;;;;;;-2.38;95.18;99750.65;1704161;83;21166;-67
2020/12/11 07:47:12;;;;;;;18.05;9.60;;;;;;;-2.41;94.37;99758.11;1704079;83;21630;-67
2020/12/11 07:49:45;;;;;;;19.05;10.70;;;;;;;-2.43;94.00;99760.35;1717038;83;21339;-67
2020/12/11 07:52:21;;;;;;;14.67;8.67;;;;;;;-2.48;93.99;99763.61;1708338;83;21224;-69
2020/12/11 07:54:44;;;;;;;14.10;8.75;;;;;;;-2.51;93.72;99756.79;1723132;83;21619;-67
2020/12/11 07:57:20;;;;;;;20.15;10.58;;;;;;;-2.55;93.49;99770.31;1723260;83;21303;-68
2020/12/11 07:59:59;;;;;;;18.10;9.78;;;;;;;-2.58;93.66;99761.39;1725848;83;21182;-67
2020/12/11 08:02:28;;;;;;;19.87;10.88;;;;;;;-2.62;93.68;99749.92;1730410;83;21165;-68
2020/12/11 08:04:56;;;;;;;20.12;11.28;;;;;;;-2.62;94.03;99759.84;1732061;83;21589;-67
2020/12/11 08:07:27;;;;;;;20.10;11.20;;;;;;;-2.63;95.08;99754.27;1652731;83;21624;-68
2020/12/11 08:10:10;;;;;;;19.10;11.30;;;;;;;-2.58;94.80;99767.88;1690080;83;21162;-68
2020/12/11 08:12:39;;;;;;;19.55;11.08;;;;;;;-2.57;94.78;99746.69;1721846;83;21189;-68
2020/12/11 08:15:09;;;;;;;20.92;11.18;;;;;;;-2.58;94.90;99764.41;1708346;83;21169;-68
2020/12/11 08:17:37;;;;;;;21.17;11.90;;;;;;;-2.58;94.96;99756.22;1733367;83;21189;-67
2020/12/11 08:20:07;;;;;;;19.55;11.05;;;;;;;-2.57;94.31;99755.75;1707485;83;21213;-70
2020/12/11 08:22:37;;;;;;;19.73;11.05;;;;;;;-2.62;94.13;99757.25;1705989;83;21213;-69
2020/12/11 08:25:22;;;;;;;22.10;10.48;;;;;;;-2.69;93.91;99763.59;1718985;83;21157;-69
2020/12/11 08:27:52;;;;;;;23.22;11.53;;;;;;;-2.72;94.67;99754.63;1728692;83;21206;-68
2020/12/11 08:30:22;;;;;;;19.55;11.33;;;;;;;-2.76;93.97;99766.02;1718212;83;21193;-69
2020/12/11 08:32:50;;;;;;;20.27;11.88;;;;;;;-2.77;93.25;99748.80;1715707;83;21574;-68
2020/12/11 08:35:22;;;;;;;17.27;11.57;;;;;;;-2.78;93.59;99748.42;1707863;83;21302;-70
2020/12/11 08:37:54;;;;;;;20.40;11.25;;;;;;;-2.74;94.20;99751.27;1696245;83;21749;-68
2020/12/11 08:40:23;;;;;;;19.40;11.57;;;;;;;-2.67;94.32;99769.54;1692229;83;21169;-68
2020/12/11 08:45:44;;;;;;;25.02;11.40;;;;;;;-2.59;93.04;99762.75;1728453;83;21165;-68
2020/12/11 08:50:42;;;;;;;23.02;11.50;;;;;;;-2.54;92.86;99744.82;1692322;83;21622;-68
2020/12/11 08:53:10;;;;;;;19.67;11.28;;;;;;;-2.43;93.42;99744.81;1731436;83;21618;-67
2020/12/11 08:55:38;;;;;;;19.10;11.43;;;;;;;-2.35;92.27;99746.19;1722191;83;21177;-68
2020/12/11 08:58:07;;;;;;;20.40;12.00;;;;;;;-2.22;91.56;99758.63;1702803;83;21396;-68
2020/12/11 09:00:35;;;;;;;22.02;11.85;;;;;;;-2.10;91.67;99748.19;1709469;83;21347;-68
2020/12/11 09:03:04;;;;;;;21.00;11.20;;;;;;;-1.98;90.83;99746.38;1722698;83;21571;-70
2020/12/11 09:05:31;;;;;;;20.90;11.12;;;;;;;-1.92;90.08;99751.28;1713513;83;22155;-69
2020/12/11 09:07:58;;;;;;;21.48;12.10;;;;;;;-1.85;87.57;99753.12;1715560;83;21249;-71
2020/12/11 09:10:27;;;;;;;21.80;12.23;;;;;;;-1.93;86.59;99749.58;1728550;83;21150;-67
2020/12/11 09:12:54;;;;;;;22.00;11.97;;;;;;;-1.98;87.46;99743.78;1722577;83;21185;-71
2020/12/11 09:15:23;;;;;;;20.12;12.18;;;;;;;-2.07;86.31;99736.40;1729129;83;21157;-69
2020/12/11 09:17:51;;;;;;;20.95;11.75;;;;;;;-2.15;87.37;99738.03;1707108;83;21335;-69
2020/12/11 09:20:19;;;;;;;21.45;11.90;;;;;;;-2.19;87.45;99746.39;1698255;83;21316;-70
2020/12/11 09:22:47;;;;;;;21.93;12.10;;;;;;;-2.20;87.77;99725.72;1721485;83;21185;-69
2020/12/11 09:25:16;;;;;;;20.97;11.90;;;;;;;-2.19;88.57;99729.55;1690559;83;21295;-69
2020/12/11 09:27:46;;;;;;;22.40;12.90;;;;;;;-2.15;88.79;99749.69;1689235;83;21190;-69
2020/12/11 09:33:02;;;;;;;20.97;12.90;;;;;;;-2.21;87.27;99730.50;1725523;83;21221;-69
2020/12/11 09:35:27;;;;;;;21.33;13.50;;;;;;;-2.20;88.13;99722.67;1726452;83;21166;-69
2020/12/11 09:37:56;;;;;;;23.30;13.70;;;;;;;-2.18;88.76;99726.49;1714577;83;21178;-68
2020/12/11 09:40:40;;;;;;;21.07;11.33;;;;;;;-2.15;88.26;99726.37;1729587;83;21301;-70
2020/12/11 09:45:48;;;;;;;24.52;12.88;;;;;;;-2.16;87.34;99712.55;1720840;83;21195;-68
2020/12/11 09:56:24;;;;;;;21.33;13.28;;;;;;;-2.09;86.00;99713.14;1700302;83;21587;-71
2020/12/11 09:58:59;;;;;;;23.47;12.73;;;;;;;-2.09;86.47;99708.42;1734974;81;21341;-70
2020/12/11 10:01:31;;;;;;;23.10;14.00;;;;;;;-2.08;85.95;99703.14;1747725;81;21204;-69
2020/12/11 10:03:56;;;;;;;21.17;12.75;;;;;;;-2.12;86.40;99698.17;1727777;83;21572;-69
2020/12/11 10:06:27;;;;;;;19.37;12.68;;;;;;;-2.13;87.79;99692.16;1715736;82;21301;-70
2020/12/11 10:08:55;;;;;;;20.55;12.70;;;;;;;-2.15;88.03;99689.63;1746177;81;21274;-70
2020/12/11 10:11:23;;;;;;;23.83;13.30;;;;;;;-2.18;87.52;99681.98;1715083;83;21192;-70
2020/12/11 10:13:55;;;;;;;20.20;12.20;;;;;;;-2.25;87.09;99679.73;1699044;82;21316;-69
2020/12/11 10:16:20;;;;;;;22.00;12.43;;;;;;;-2.27;87.54;99678.50;1698825;82;21613;-70
2020/12/11 10:18:49;;;;;;;22.07;13.48;;;;;;;-2.29;88.14;99674.30;1699187;82;21207;-70
2020/12/11 10:21:17;;;;;;;22.02;13.38;;;;;;;-2.29;87.70;99677.72;1704222;82;21616;-69
2020/12/11 10:23:44;;;;;;;23.62;13.32;;;;;;;-2.27;87.31;99671.19;1698743;83;21619;-69
2020/12/11 10:26:12;;;;;;;24.55;13.43;;;;;;;-2.26;87.20;99674.14;1735692;81;21185;-68
2020/12/11 10:28:40;;;;;;;20.43;12.45;;;;;;;-2.28;87.43;99678.55;1733764;81;21171;-69
2020/12/11 10:31:08;;;;;;;23.35;13.18;;;;;;;-2.27;88.56;99677.66;1733813;81;21313;-69
2020/12/11 10:33:35;;;;;;;21.95;12.68;;;;;;;-2.23;89.15;99673.56;1730147;81;21188;-70
2020/12/11 10:36:03;;;;;;;23.05;13.13;;;;;;;-2.25;89.14;99696.11;1704845;82;21345;-68
2020/12/11 10:38:31;;;;;;;23.02;12.88;;;;;;;-2.27;86.90;99672.48;1730242;83;21257;-69
2020/12/11 10:40:59;;;;;;;21.60;13.40;;;;;;;-2.39;86.07;99677.29;1671546;84;21313;-68
2020/12/11 10:43:27;;;;;;;18.77;12.35;;;;;;;-2.50;86.59;99672.19;1733178;83;21162;-68
2020/12/11 10:45:55;;;;;;;23.27;12.30;;;;;;;-2.56;87.40;99667.66;1700209;84;21211;-69
2020/12/11 10:48:23;;;;;;;23.95;13.55;;;;;;;-2.55;88.15;99670.61;1728847;82;21167;-69
2020/12/11 10:50:51;;;;;;;21.68;12.63;;;;;;;-2.47;88.67;99662.97;1716206;83;21135;-69
2020/12/11 10:53:19;;;;;;;21.12;13.13;;;;;;;-2.37;89.02;99662.98;1713170;83;21170;-70
2020/12/11 10:55:47;;;;;;;21.33;13.30;;;;;;;-2.29;88.85;99667.83;1711691;83;21625;-68
2020/12/11 10:58:17;;;;;;;20.70;12.78;;;;;;;-2.24;89.32;99669.30;1724616;83;21175;-69
2020/12/11 11:00:45;;;;;;;22.13;12.47;;;;;;;-2.19;89.50;99669.09;1695997;83;21223;-70
2020/12/11 11:03:12;;;;;;;21.02;11.70;;;;;;;-2.16;88.46;99668.50;1725654;83;21218;-68
2020/12/11 11:05:43;;;;;;;21.30;12.40;;;;;;;-2.18;87.88;99675.97;1727907;83;21292;-69
2020/12/11 11:08:10;;;;;;;20.25;12.03;;;;;;;-2.18;87.67;99668.19;1707678;83;22365;-69
2020/12/11 11:10:43;;;;;;;23.12;12.30;;;;;;;-2.20;88.72;99668.72;1702237;83;21652;-68
2020/12/11 11:13:39;;;;;;;25.52;13.60;;;;;;;-2.15;87.58;99671.95;1721446;83;21597;-69
2020/12/11 11:15:57;;;;;;;20.40;11.73;;;;;;;-2.18;86.67;99661.25;1720381;83;21215;-68
2020/12/11 11:23:51;;;;;;;20.60;12.15;;;;;;;-2.35;86.84;99672.36;1718610;83;21353;-69
2020/12/11 11:28:56;;;;;;;19.90;11.85;;;;;;;-2.47;88.52;99654.77;1721717;83;21608;-68
2020/12/11 11:31:24;;;;;;;17.30;10.80;;;;;;;-2.56;89.28;99670.24;1730206;83;21799;-69
2020/12/11 11:33:51;;;;;;;19.73;11.60;;;;;;;-2.63;88.95;99654.58;1689166;83;21763;-69
2020/12/11 11:36:19;;;;;;;20.92;12.28;;;;;;;-2.67;89.37;99657.37;1730434;83;21309;-69
2020/12/11 11:38:47;;;;;;;20.30;11.28;;;;;;;-2.71;90.27;99647.59;1707926;83;21266;-68
2020/12/11 11:41:44;;;;;;;17.30;11.40;;;;;;;-2.68;91.16;99650.03;1725299;83;21524;-69
2020/12/11 11:46:58;;;;;;;20.65;12.00;;;;;;;-2.71;90.09;99648.03;1801814;78;23103;-67
2020/12/11 11:49:33;;;;;;;21.87;12.55;;;;;;;-2.83;90.30;99646.34;1768807;80;21159;-68
2020/12/11 11:52:07;;;;;;;21.42;13.00;;;;;;;-2.87;91.52;99642.21;1763800;80;21234;-68
2020/12/11 11:54:26;;;;;;;21.55;12.50;;;;;;;-2.90;92.24;99641.49;1755988;80;21214;-68
2020/12/11 11:56:58;;;;;;;20.05;11.75;;;;;;;-2.90;92.08;99645.38;1742029;81;21579;-68